sensor_id;sensor_type;location;lat;lon;timestamp;pressure;altitude;pressure_sealevel;temperature;humidity
34073;BME280;20346;52.702;16.886;2023-03-07T00:00:37;99564.20;;;-3.33;73.58
34073;BME280;20346;52.702;16.886;2023-03-07T00:03:23;99562.02;;;-3.33;73.55
34073;BME280;20346;52.702;16.886;2023-03-07T00:06:09;99564.88;;;-3.33;73.56
34073;BME280;20346;52.702;16.886;2023-03-07T00:08:57;99562.99;;;-3.35;73.47
34073;BME280;20346;52.702;16.886;2023-03-07T00:11:44;99560.77;;;-3.37;73.40
34073;BME280;20346;52.702;16.886;2023-03-07T00:14:30;99563.27;;;-3.37;73.53
34073;BME280;20346;52.702;16.886;2023-03-07T00:17:16;99563.64;;;-3.36;73.59
34073;BME280;20346;52.702;16.886;2023-03-07T00:20:02;99562.15;;;-3.34;73.58
34073;BME280;20346;52.702;16.886;2023-03-07T00:22:51;99563.20;;;-3.33;73.57
34073;BME280;20346;52.702;16.886;2023-03-07T00:25:38;99561.86;;;-3.32;73.62
34073;BME280;20346;52.702;16.886;2023-03-07T00:28:24;99562.42;;;-3.29;73.65
34073;BME280;20346;52.702;16.886;2023-03-07T00:31:10;99555.44;;;-3.26;73.71
34073;BME280;20346;52.702;16.886;2023-03-07T00:33:56;99552.64;;;-3.22;73.71
34073;BME280;20346;52.702;16.886;2023-03-07T00:36:42;99546.64;;;-3.19;73.82
34073;BME280;20346;52.702;16.886;2023-03-07T00:39:28;99544.52;;;-3.16;73.87
34073;BME280;20346;52.702;16.886;2023-03-07T00:42:14;99544.78;;;-3.12;73.94
34073;BME280;20346;52.702;16.886;2023-03-07T00:45:00;99543.84;;;-3.08;73.91
34073;BME280;20346;52.702;16.886;2023-03-07T00:47:46;99539.83;;;-3.06;74.01
34073;BME280;20346;52.702;16.886;2023-03-07T00:50:32;99533.65;;;-3.03;74.00
34073;BME280;20346;52.702;16.886;2023-03-07T00:53:19;99529.70;;;-2.98;74.05
34073;BME280;20346;52.702;16.886;2023-03-07T00:56:06;99527.73;;;-2.95;74.01
34073;BME280;20346;52.702;16.886;2023-03-07T00:58:52;99520.38;;;-2.93;74.04
34073;BME280;20346;52.702;16.886;2023-03-07T01:01:38;99516.73;;;-2.89;74.11
34073;BME280;20346;52.702;16.886;2023-03-07T01:04:24;99521.55;;;-2.85;74.12
34073;BME280;20346;52.702;16.886;2023-03-07T01:07:10;99518.59;;;-2.81;74.15
34073;BME280;20346;52.702;16.886;2023-03-07T01:09:56;99512.73;;;-2.79;74.22
34073;BME280;20346;52.702;16.886;2023-03-07T01:12:42;99514.62;;;-2.78;74.23
34073;BME280;20346;52.702;16.886;2023-03-07T01:15:29;99511.41;;;-2.77;74.23
34073;BME280;20346;52.702;16.886;2023-03-07T01:18:15;99509.09;;;-2.75;74.21
34073;BME280;20346;52.702;16.886;2023-03-07T01:21:01;99507.25;;;-2.75;74.29
34073;BME280;20346;52.702;16.886;2023-03-07T01:23:47;99505.45;;;-2.72;74.30
34073;BME280;20346;52.702;16.886;2023-03-07T01:26:34;99503.59;;;-2.72;74.22
34073;BME280;20346;52.702;16.886;2023-03-07T01:29:20;99500.54;;;-2.73;74.18
34073;BME280;20346;52.702;16.886;2023-03-07T01:32:06;99498.52;;;-2.73;74.18
34073;BME280;20346;52.702;16.886;2023-03-07T01:34:52;99492.25;;;-2.74;74.22
34073;BME280;20346;52.702;16.886;2023-03-07T01:37:38;99491.36;;;-2.77;74.23
34073;BME280;20346;52.702;16.886;2023-03-07T01:40:24;99486.13;;;-2.77;74.31
34073;BME280;20346;52.702;16.886;2023-03-07T01:43:24;99487.15;;;-2.77;74.29
34073;BME280;20346;52.702;16.886;2023-03-07T01:49:36;99480.33;;;-2.80;74.23
34073;BME280;20346;52.702;16.886;2023-03-07T01:52:25;99479.95;;;-2.82;74.34
34073;BME280;20346;52.702;16.886;2023-03-07T01:55:15;99478.95;;;-2.82;74.28
34073;BME280;20346;52.702;16.886;2023-03-07T01:58:03;99476.61;;;-2.81;74.39
34073;BME280;20346;52.702;16.886;2023-03-07T02:00:50;99474.63;;;-2.79;74.36
34073;BME280;20346;52.702;16.886;2023-03-07T02:06:33;99463.52;;;-2.77;74.45
34073;BME280;20346;52.702;16.886;2023-03-07T02:09:21;99456.59;;;-2.78;74.39
34073;BME280;20346;52.702;16.886;2023-03-07T02:12:08;99457.06;;;-2.80;74.36
34073;BME280;20346;52.702;16.886;2023-03-07T02:14:55;99453.17;;;-2.80;74.36
34073;BME280;20346;52.702;16.886;2023-03-07T02:17:41;99450.81;;;-2.80;74.46
34073;BME280;20346;52.702;16.886;2023-03-07T02:23:40;99442.98;;;-2.85;74.30
34073;BME280;20346;52.702;16.886;2023-03-07T02:29:38;99431.23;;;-2.91;74.28
34073;BME280;20346;52.702;16.886;2023-03-07T02:32:25;99428.32;;;-2.93;74.33
34073;BME280;20346;52.702;16.886;2023-03-07T02:35:16;99428.92;;;-2.96;74.39
34073;BME280;20346;52.702;16.886;2023-03-07T02:38:03;99425.21;;;-2.96;74.37
34073;BME280;20346;52.702;16.886;2023-03-07T02:40:51;99422.13;;;-2.99;74.28
34073;BME280;20346;52.702;16.886;2023-03-07T02:43:38;99418.52;;;-3.03;74.33
34073;BME280;20346;52.702;16.886;2023-03-07T02:46:24;99412.92;;;-3.04;74.42
34073;BME280;20346;52.702;16.886;2023-03-07T02:49:10;99410.59;;;-3.04;74.37
34073;BME280;20346;52.702;16.886;2023-03-07T02:51:56;99407.05;;;-3.03;74.45
34073;BME280;20346;52.702;16.886;2023-03-07T02:54:45;99399.95;;;-3.05;74.38
34073;BME280;20346;52.702;16.886;2023-03-07T02:57:32;99393.84;;;-3.06;74.37
34073;BME280;20346;52.702;16.886;2023-03-07T03:00:18;99388.42;;;-3.08;74.43
34073;BME280;20346;52.702;16.886;2023-03-07T03:03:04;99382.17;;;-3.09;74.37
34073;BME280;20346;52.702;16.886;2023-03-07T03:05:50;99375.56;;;-3.10;74.45
34073;BME280;20346;52.702;16.886;2023-03-07T03:08:36;99373.70;;;-3.11;74.40
34073;BME280;20346;52.702;16.886;2023-03-07T03:11:22;99366.44;;;-3.13;74.39
34073;BME280;20346;52.702;16.886;2023-03-07T03:14:08;99361.70;;;-3.15;74.50
34073;BME280;20346;52.702;16.886;2023-03-07T03:16:55;99364.10;;;-3.12;74.55
34073;BME280;20346;52.702;16.886;2023-03-07T03:19:41;99352.47;;;-3.11;74.58
34073;BME280;20346;52.702;16.886;2023-03-07T03:22:27;99340.86;;;-3.10;74.69
34073;BME280;20346;52.702;16.886;2023-03-07T03:25:13;99336.70;;;-3.07;74.73
34073;BME280;20346;52.702;16.886;2023-03-07T03:28:00;99328.81;;;-3.05;74.74
34073;BME280;20346;52.702;16.886;2023-03-07T03:30:55;99324.80;;;-3.03;74.76
34073;BME280;20346;52.702;16.886;2023-03-07T03:33:41;99319.09;;;-3.02;74.76
34073;BME280;20346;52.702;16.886;2023-03-07T03:36:28;99313.89;;;-2.99;74.83
34073;BME280;20346;52.702;16.886;2023-03-07T03:39:14;99317.66;;;-2.96;74.94
34073;BME280;20346;52.702;16.886;2023-03-07T03:42:00;99311.17;;;-2.92;74.97
34073;BME280;20346;52.702;16.886;2023-03-07T03:44:46;99302.12;;;-2.88;74.99
34073;BME280;20346;52.702;16.886;2023-03-07T03:47:33;99303.09;;;-2.81;75.09
34073;BME280;20346;52.702;16.886;2023-03-07T03:50:19;99299.62;;;-2.76;75.07
34073;BME280;20346;52.702;16.886;2023-03-07T03:53:05;99298.02;;;-2.71;75.14
34073;BME280;20346;52.702;16.886;2023-03-07T03:55:51;99296.54;;;-2.69;75.05
34073;BME280;20346;52.702;16.886;2023-03-07T03:58:37;99296.23;;;-2.68;75.10
34073;BME280;20346;52.702;16.886;2023-03-07T04:01:24;99292.87;;;-2.66;75.09
34073;BME280;20346;52.702;16.886;2023-03-07T04:04:10;99290.38;;;-2.64;75.19
34073;BME280;20346;52.702;16.886;2023-03-07T04:06:57;99282.81;;;-2.62;75.13
34073;BME280;20346;52.702;16.886;2023-03-07T04:09:43;99276.75;;;-2.61;75.08
34073;BME280;20346;52.702;16.886;2023-03-07T04:12:29;99273.39;;;-2.60;75.17
34073;BME280;20346;52.702;16.886;2023-03-07T04:15:15;99271.20;;;-2.58;75.20
34073;BME280;20346;52.702;16.886;2023-03-07T04:18:02;99269.36;;;-2.57;75.17
34073;BME280;20346;52.702;16.886;2023-03-07T04:20:48;99267.86;;;-2.56;75.17
34073;BME280;20346;52.702;16.886;2023-03-07T04:23:35;99265.37;;;-2.53;75.21
34073;BME280;20346;52.702;16.886;2023-03-07T04:26:21;99263.39;;;-2.50;75.24
34073;BME280;20346;52.702;16.886;2023-03-07T04:29:08;99262.60;;;-2.46;75.28
34073;BME280;20346;52.702;16.886;2023-03-07T04:31:54;99259.98;;;-2.41;75.29
34073;BME280;20346;52.702;16.886;2023-03-07T04:34:40;99253.97;;;-2.37;75.39
34073;BME280;20346;52.702;16.886;2023-03-07T04:37:26;99247.80;;;-2.32;75.38
34073;BME280;20346;52.702;16.886;2023-03-07T04:40:12;99245.31;;;-2.28;75.38
34073;BME280;20346;52.702;16.886;2023-03-07T04:42:59;99244.51;;;-2.25;75.41
34073;BME280;20346;52.702;16.886;2023-03-07T04:45:45;99240.67;;;-2.21;75.52
34073;BME280;20346;52.702;16.886;2023-03-07T04:48:31;99232.97;;;-2.16;75.47
34073;BME280;20346;52.702;16.886;2023-03-07T04:51:17;99223.07;;;-2.12;75.41
34073;BME280;20346;52.702;16.886;2023-03-07T04:54:03;99218.21;;;-2.10;75.48
34073;BME280;20346;52.702;16.886;2023-03-07T04:56:49;99210.96;;;-2.06;75.49
34073;BME280;20346;52.702;16.886;2023-03-07T04:59:35;99201.54;;;-2.03;75.55
34073;BME280;20346;52.702;16.886;2023-03-07T05:02:24;99191.77;;;-2.01;75.50
34073;BME280;20346;52.702;16.886;2023-03-07T05:05:10;99187.23;;;-1.99;75.51
34073;BME280;20346;52.702;16.886;2023-03-07T05:07:56;99184.55;;;-1.98;75.61
34073;BME280;20346;52.702;16.886;2023-03-07T05:10:42;99182.55;;;-1.95;75.59
34073;BME280;20346;52.702;16.886;2023-03-07T05:13:28;99180.05;;;-1.92;75.67
34073;BME280;20346;52.702;16.886;2023-03-07T05:16:15;99169.45;;;-1.88;75.69
34073;BME280;20346;52.702;16.886;2023-03-07T05:19:02;99165.42;;;-1.86;75.72
34073;BME280;20346;52.702;16.886;2023-03-07T05:21:49;99163.60;;;-1.82;75.72
34073;BME280;20346;52.702;16.886;2023-03-07T05:24:35;99156.03;;;-1.80;75.83
34073;BME280;20346;52.702;16.886;2023-03-07T05:27:21;99151.67;;;-1.77;75.80
34073;BME280;20346;52.702;16.886;2023-03-07T05:30:07;99146.13;;;-1.73;75.75
34073;BME280;20346;52.702;16.886;2023-03-07T05:32:54;99142.64;;;-1.69;75.89
34073;BME280;20346;52.702;16.886;2023-03-07T05:35:40;99141.30;;;-1.65;75.93
34073;BME280;20346;52.702;16.886;2023-03-07T05:38:26;99133.56;;;-1.63;75.94
34073;BME280;20346;52.702;16.886;2023-03-07T05:41:12;99132.75;;;-1.59;75.89
34073;BME280;20346;52.702;16.886;2023-03-07T05:43:58;99126.18;;;-1.57;75.88
34073;BME280;20346;52.702;16.886;2023-03-07T05:46:44;99121.61;;;-1.53;75.91
34073;BME280;20346;52.702;16.886;2023-03-07T05:49:30;99115.54;;;-1.52;75.88
34073;BME280;20346;52.702;16.886;2023-03-07T05:52:16;99111.85;;;-1.49;76.06
34073;BME280;20346;52.702;16.886;2023-03-07T05:57:20;99102.14;;;-1.39;76.17
34073;BME280;20346;52.702;16.886;2023-03-07T06:00:06;99106.90;;;-1.35;76.12
34073;BME280;20346;52.702;16.886;2023-03-07T06:02:53;99103.70;;;-1.33;76.09
34073;BME280;20346;52.702;16.886;2023-03-07T06:05:40;99100.16;;;-1.30;76.13
34073;BME280;20346;52.702;16.886;2023-03-07T06:08:26;99095.61;;;-1.29;76.10
34073;BME280;20346;52.702;16.886;2023-03-07T06:11:12;99087.00;;;-1.26;76.18
34073;BME280;20346;52.702;16.886;2023-03-07T06:13:58;99084.66;;;-1.25;76.10
34073;BME280;20346;52.702;16.886;2023-03-07T06:16:44;99074.52;;;-1.24;76.20
34073;BME280;20346;52.702;16.886;2023-03-07T06:19:30;99072.34;;;-1.21;76.25
34073;BME280;20346;52.702;16.886;2023-03-07T06:22:16;99069.99;;;-1.18;76.26
34073;BME280;20346;52.702;16.886;2023-03-07T06:25:06;99069.34;;;-1.14;76.39
34073;BME280;20346;52.702;16.886;2023-03-07T06:27:52;99063.13;;;-1.08;76.33
34073;BME280;20346;52.702;16.886;2023-03-07T06:30:44;99067.36;;;-1.04;76.39
34073;BME280;20346;52.702;16.886;2023-03-07T06:33:30;99065.33;;;-1.00;76.36
34073;BME280;20346;52.702;16.886;2023-03-07T06:36:23;99061.98;;;-0.96;76.37
34073;BME280;20346;52.702;16.886;2023-03-07T06:39:09;99061.31;;;-0.94;76.34
34073;BME280;20346;52.702;16.886;2023-03-07T06:41:55;99053.54;;;-0.93;76.45
34073;BME280;20346;52.702;16.886;2023-03-07T06:44:41;99047.28;;;-0.91;76.53
34073;BME280;20346;52.702;16.886;2023-03-07T06:47:27;99045.61;;;-0.87;76.59
34073;BME280;20346;52.702;16.886;2023-03-07T06:50:13;99040.73;;;-0.83;76.57
34073;BME280;20346;52.702;16.886;2023-03-07T06:52:59;99027.39;;;-0.78;76.55
34073;BME280;20346;52.702;16.886;2023-03-07T06:55:48;99017.59;;;-0.74;76.60
34073;BME280;20346;52.702;16.886;2023-03-07T06:58:36;99019.11;;;-0.72;76.64
34073;BME280;20346;52.702;16.886;2023-03-07T07:01:22;99012.71;;;-0.64;76.66
34073;BME280;20346;52.702;16.886;2023-03-07T07:04:09;99012.23;;;-0.59;76.69
34073;BME280;20346;52.702;16.886;2023-03-07T07:06:55;99007.83;;;-0.57;76.68
34073;BME280;20346;52.702;16.886;2023-03-07T07:09:41;99006.30;;;-0.53;76.74
34073;BME280;20346;52.702;16.886;2023-03-07T07:12:27;99001.22;;;-0.48;76.78
34073;BME280;20346;52.702;16.886;2023-03-07T07:15:13;98994.30;;;-0.43;76.79
34073;BME280;20346;52.702;16.886;2023-03-07T07:17:59;98992.27;;;-0.36;76.87
34073;BME280;20346;52.702;16.886;2023-03-07T07:20:51;98994.48;;;-0.29;76.91
34073;BME280;20346;52.702;16.886;2023-03-07T07:23:37;98980.79;;;-0.25;76.96
34073;BME280;20346;52.702;16.886;2023-03-07T07:26:23;98976.90;;;-0.18;76.96
34073;BME280;20346;52.702;16.886;2023-03-07T07:29:11;98975.55;;;-0.08;77.00
34073;BME280;20346;52.702;16.886;2023-03-07T07:31:57;98975.53;;;-0.00;77.06
34073;BME280;20346;52.702;16.886;2023-03-07T07:34:43;98970.95;;;0.07;76.95
34073;BME280;20346;52.702;16.886;2023-03-07T07:37:29;98973.31;;;0.14;77.11
34073;BME280;20346;52.702;16.886;2023-03-07T07:40:16;98971.79;;;0.19;77.07
34073;BME280;20346;52.702;16.886;2023-03-07T07:43:02;98966.88;;;0.25;77.13
34073;BME280;20346;52.702;16.886;2023-03-07T07:45:48;98960.42;;;0.32;77.16
34073;BME280;20346;52.702;16.886;2023-03-07T07:48:34;98954.98;;;0.43;77.20
34073;BME280;20346;52.702;16.886;2023-03-07T07:51:20;98949.48;;;0.57;77.19
34073;BME280;20346;52.702;16.886;2023-03-07T07:54:07;98948.62;;;0.66;77.31
34073;BME280;20346;52.702;16.886;2023-03-07T07:56:54;98940.64;;;0.71;77.23
34073;BME280;20346;52.702;16.886;2023-03-07T07:59:40;98938.59;;;0.72;77.25
34073;BME280;20346;52.702;16.886;2023-03-07T08:02:26;98933.33;;;0.75;77.39
34073;BME280;20346;52.702;16.886;2023-03-07T08:05:13;98930.77;;;0.81;77.34
34073;BME280;20346;52.702;16.886;2023-03-07T08:07:59;98920.56;;;0.88;77.43
34073;BME280;20346;52.702;16.886;2023-03-07T08:10:45;98921.20;;;0.97;77.52
34073;BME280;20346;52.702;16.886;2023-03-07T08:13:31;98917.38;;;1.10;77.57
34073;BME280;20346;52.702;16.886;2023-03-07T08:16:19;98913.91;;;1.21;77.57
34073;BME280;20346;52.702;16.886;2023-03-07T08:19:05;98915.06;;;1.29;77.60
34073;BME280;20346;52.702;16.886;2023-03-07T08:21:51;98903.50;;;1.32;77.40
34073;BME280;20346;52.702;16.886;2023-03-07T08:24:38;98886.52;;;1.33;77.41
34073;BME280;20346;52.702;16.886;2023-03-07T08:27:24;98904.84;;;1.35;77.53
34073;BME280;20346;52.702;16.886;2023-03-07T08:30:10;98892.27;;;1.38;77.63
34073;BME280;20346;52.702;16.886;2023-03-07T08:32:57;98881.22;;;1.40;77.64
34073;BME280;20346;52.702;16.886;2023-03-07T08:35:43;98884.58;;;1.45;77.62
34073;BME280;20346;52.702;16.886;2023-03-07T08:38:29;98875.03;;;1.49;77.65
34073;BME280;20346;52.702;16.886;2023-03-07T08:41:16;98864.11;;;1.55;77.64
34073;BME280;20346;52.702;16.886;2023-03-07T08:44:02;98867.42;;;1.63;77.68
34073;BME280;20346;52.702;16.886;2023-03-07T08:46:49;98859.21;;;1.71;77.72
34073;BME280;20346;52.702;16.886;2023-03-07T08:49:34;98857.94;;;1.81;77.82
34073;BME280;20346;52.702;16.886;2023-03-07T08:52:20;98858.52;;;1.91;77.85
34073;BME280;20346;52.702;16.886;2023-03-07T08:55:07;98853.33;;;2.00;77.81
34073;BME280;20346;52.702;16.886;2023-03-07T08:57:53;98859.58;;;2.05;77.66
34073;BME280;20346;52.702;16.886;2023-03-07T09:00:39;98851.58;;;2.05;77.66
34073;BME280;20346;52.702;16.886;2023-03-07T09:03:25;98850.86;;;2.08;77.63
34073;BME280;20346;52.702;16.886;2023-03-07T09:06:15;98852.95;;;2.05;77.63
34073;BME280;20346;52.702;16.886;2023-03-07T09:09:02;98856.39;;;2.01;77.50
34073;BME280;20346;52.702;16.886;2023-03-07T09:11:50;98849.98;;;1.95;77.57
34073;BME280;20346;52.702;16.886;2023-03-07T09:14:36;98848.67;;;1.90;77.58
34073;BME280;20346;52.702;16.886;2023-03-07T09:17:22;98841.59;;;1.84;77.71
34073;BME280;20346;52.702;16.886;2023-03-07T09:20:09;98840.13;;;1.77;77.74
34073;BME280;20346;52.702;16.886;2023-03-07T09:22:56;98840.75;;;1.65;77.69
34073;BME280;20346;52.702;16.886;2023-03-07T09:25:43;98844.07;;;1.56;77.72
34073;BME280;20346;52.702;16.886;2023-03-07T09:28:29;98840.93;;;1.46;77.87
34073;BME280;20346;52.702;16.886;2023-03-07T09:31:15;98839.64;;;1.37;77.88
34073;BME280;20346;52.702;16.886;2023-03-07T09:34:01;98839.70;;;1.28;77.89
34073;BME280;20346;52.702;16.886;2023-03-07T09:36:49;98841.79;;;1.22;78.02
34073;BME280;20346;52.702;16.886;2023-03-07T09:39:35;98842.31;;;1.19;78.05
34073;BME280;20346;52.702;16.886;2023-03-07T09:51:44;98833.89;;;1.09;78.30
34073;BME280;20346;52.702;16.886;2023-03-07T09:57:44;98831.00;;;1.11;78.54
34073;BME280;20346;52.702;16.886;2023-03-07T10:00:35;98828.61;;;1.13;78.59
34073;BME280;20346;52.702;16.886;2023-03-07T10:03:36;98830.44;;;1.18;78.57
34073;BME280;20346;52.702;16.886;2023-03-07T10:06:45;98823.96;;;1.23;78.52
34073;BME280;20346;52.702;16.886;2023-03-07T10:09:34;98828.34;;;1.27;78.55
34073;BME280;20346;52.702;16.886;2023-03-07T10:21:32;98815.29;;;1.47;78.84
34073;BME280;20346;52.702;16.886;2023-03-07T10:27:10;98805.48;;;1.58;78.85
34073;BME280;20346;52.702;16.886;2023-03-07T10:29:58;98804.42;;;1.62;78.86
34073;BME280;20346;52.702;16.886;2023-03-07T10:32:46;98797.41;;;1.68;78.78
34073;BME280;20346;52.702;16.886;2023-03-07T10:35:41;98796.50;;;1.75;78.84
34073;BME280;20346;52.702;16.886;2023-03-07T10:38:34;98794.23;;;1.81;79.05
34073;BME280;20346;52.702;16.886;2023-03-07T10:41:22;98792.96;;;1.88;78.86
34073;BME280;20346;52.702;16.886;2023-03-07T10:44:13;98786.11;;;1.94;78.89
34073;BME280;20346;52.702;16.886;2023-03-07T10:47:00;98790.65;;;1.98;78.86
34073;BME280;20346;52.702;16.886;2023-03-07T10:49:46;98784.66;;;2.02;79.04
34073;BME280;20346;52.702;16.886;2023-03-07T10:52:41;98779.55;;;2.03;78.96
34073;BME280;20346;52.702;16.886;2023-03-07T10:55:31;98778.52;;;2.05;78.96
34073;BME280;20346;52.702;16.886;2023-03-07T10:58:21;98777.48;;;2.06;78.96
34073;BME280;20346;52.702;16.886;2023-03-07T11:01:13;98773.17;;;2.09;78.97
34073;BME280;20346;52.702;16.886;2023-03-07T11:07:09;98768.24;;;2.09;78.98
34073;BME280;20346;52.702;16.886;2023-03-07T11:10:24;98758.90;;;2.09;79.12
34073;BME280;20346;52.702;16.886;2023-03-07T11:13:15;98757.34;;;2.11;79.19
34073;BME280;20346;52.702;16.886;2023-03-07T11:16:12;98753.58;;;2.13;79.07
34073;BME280;20346;52.702;16.886;2023-03-07T11:19:00;98749.64;;;2.16;79.15
34073;BME280;20346;52.702;16.886;2023-03-07T11:21:54;98752.69;;;2.16;79.18
34073;BME280;20346;52.702;16.886;2023-03-07T11:24:40;98749.61;;;2.18;79.31
34073;BME280;20346;52.702;16.886;2023-03-07T11:27:34;98751.46;;;2.20;79.34
34073;BME280;20346;52.702;16.886;2023-03-07T11:30:34;98746.49;;;2.22;79.31
34073;BME280;20346;52.702;16.886;2023-03-07T11:33:46;98746.09;;;2.27;79.34
34073;BME280;20346;52.702;16.886;2023-03-07T11:36:34;98744.52;;;2.31;79.39
34073;BME280;20346;52.702;16.886;2023-03-07T11:42:37;98742.36;;;2.40;79.35
34073;BME280;20346;52.702;16.886;2023-03-07T11:54:49;98729.39;;;2.43;79.35
34073;BME280;20346;52.702;16.886;2023-03-07T12:00:50;98730.40;;;2.44;79.35
34073;BME280;20346;52.702;16.886;2023-03-07T12:12:24;98716.23;;;2.48;79.46
34073;BME280;20346;52.702;16.886;2023-03-07T12:15:35;98716.20;;;2.51;79.43
34073;BME280;20346;52.702;16.886;2023-03-07T12:24:58;98702.28;;;2.70;79.58
34073;BME280;20346;52.702;16.886;2023-03-07T12:30:55;98693.38;;;2.85;79.65
34073;BME280;20346;52.702;16.886;2023-03-07T12:36:35;98683.23;;;3.02;79.56
34073;BME280;20346;52.702;16.886;2023-03-07T12:39:24;98679.74;;;3.07;79.63
34073;BME280;20346;52.702;16.886;2023-03-07T12:42:21;98682.81;;;3.15;79.66
34073;BME280;20346;52.702;16.886;2023-03-07T12:45:12;98682.17;;;3.22;79.58
34073;BME280;20346;52.702;16.886;2023-03-07T12:51:05;98684.96;;;3.38;79.61
34073;BME280;20346;52.702;16.886;2023-03-07T12:53:59;98680.81;;;3.41;79.57
34073;BME280;20346;52.702;16.886;2023-03-07T12:56:58;98678.08;;;3.42;79.47
34073;BME280;20346;52.702;16.886;2023-03-07T12:59:47;98676.20;;;3.42;79.61
34073;BME280;20346;52.702;16.886;2023-03-07T13:02:38;98673.79;;;3.44;79.61
34073;BME280;20346;52.702;16.886;2023-03-07T13:05:26;98679.23;;;3.44;79.57
34073;BME280;20346;52.702;16.886;2023-03-07T13:08:15;98671.59;;;3.43;79.61
34073;BME280;20346;52.702;16.886;2023-03-07T13:11:03;98674.64;;;3.44;79.74
34073;BME280;20346;52.702;16.886;2023-03-07T13:14:08;98675.30;;;3.45;79.71
34073;BME280;20346;52.702;16.886;2023-03-07T13:16:55;98664.91;;;3.45;79.80
34073;BME280;20346;52.702;16.886;2023-03-07T13:19:41;98662.69;;;3.45;79.73
34073;BME280;20346;52.702;16.886;2023-03-07T13:34:40;98645.98;;;3.47;79.91
34073;BME280;20346;52.702;16.886;2023-03-07T13:49:47;98630.94;;;3.49;80.04
34073;BME280;20346;52.702;16.886;2023-03-07T13:52:34;98623.10;;;3.49;80.08
34073;BME280;20346;52.702;16.886;2023-03-07T13:55:22;98625.67;;;3.48;80.13
34073;BME280;20346;52.702;16.886;2023-03-07T13:58:16;98618.89;;;3.47;80.08
34073;BME280;20346;52.702;16.886;2023-03-07T14:01:05;98615.34;;;3.45;80.23
34073;BME280;20346;52.702;16.886;2023-03-07T14:07:03;98615.39;;;3.43;80.24
34073;BME280;20346;52.702;16.886;2023-03-07T14:09:57;98612.16;;;3.42;80.21
34073;BME280;20346;52.702;16.886;2023-03-07T14:16:03;98601.27;;;3.42;80.15
34073;BME280;20346;52.702;16.886;2023-03-07T14:22:00;98594.77;;;3.43;80.29
34073;BME280;20346;52.702;16.886;2023-03-07T14:31:01;98583.13;;;3.38;80.28
34073;BME280;20346;52.702;16.886;2023-03-07T14:33:51;98579.88;;;3.39;80.47
34073;BME280;20346;52.702;16.886;2023-03-07T14:36:37;98577.83;;;3.39;80.43
34073;BME280;20346;52.702;16.886;2023-03-07T14:39:23;98570.00;;;3.39;80.43
34073;BME280;20346;52.702;16.886;2023-03-07T14:51:52;98556.94;;;3.36;80.39
34073;BME280;20346;52.702;16.886;2023-03-07T14:54:38;98558.51;;;3.35;80.41
34073;BME280;20346;52.702;16.886;2023-03-07T14:57:31;98558.68;;;3.33;80.50
34073;BME280;20346;52.702;16.886;2023-03-07T15:03:06;98552.79;;;3.30;80.58
34073;BME280;20346;52.702;16.886;2023-03-07T15:05:55;98551.27;;;3.30;80.57
34073;BME280;20346;52.702;16.886;2023-03-07T15:08:42;98546.17;;;3.29;80.59
34073;BME280;20346;52.702;16.886;2023-03-07T15:11:38;98543.80;;;3.29;80.71
34073;BME280;20346;52.702;16.886;2023-03-07T15:14:37;98540.23;;;3.27;80.75
34073;BME280;20346;52.702;16.886;2023-03-07T15:17:26;98538.90;;;3.27;80.63
34073;BME280;20346;52.702;16.886;2023-03-07T15:20:15;98534.64;;;3.27;80.66
34073;BME280;20346;52.702;16.886;2023-03-07T15:23:05;98529.70;;;3.27;80.66
34073;BME280;20346;52.702;16.886;2023-03-07T15:25:59;98522.55;;;3.27;80.78
34073;BME280;20346;52.702;16.886;2023-03-07T15:28:46;98526.12;;;3.27;80.77
34073;BME280;20346;52.702;16.886;2023-03-07T15:31:52;98516.25;;;3.27;80.83
34073;BME280;20346;52.702;16.886;2023-03-07T15:34:39;98512.98;;;3.28;80.81
34073;BME280;20346;52.702;16.886;2023-03-07T15:37:26;98510.25;;;3.29;80.86
34073;BME280;20346;52.702;16.886;2023-03-07T15:43:23;98510.94;;;3.28;80.87
34073;BME280;20346;52.702;16.886;2023-03-07T15:46:16;98507.53;;;3.28;80.88
34073;BME280;20346;52.702;16.886;2023-03-07T15:49:03;98507.02;;;3.29;80.86
34073;BME280;20346;52.702;16.886;2023-03-07T15:51:50;98499.19;;;3.28;80.83
34073;BME280;20346;52.702;16.886;2023-03-07T15:54:41;98496.48;;;3.27;80.97
34073;BME280;20346;52.702;16.886;2023-03-07T15:57:33;98490.20;;;3.27;80.96
34073;BME280;20346;52.702;16.886;2023-03-07T16:00:26;98485.93;;;3.27;80.99
34073;BME280;20346;52.702;16.886;2023-03-07T16:03:27;98484.23;;;3.28;80.90
34073;BME280;20346;52.702;16.886;2023-03-07T16:06:30;98502.11;;;3.27;80.91
34073;BME280;20346;52.702;16.886;2023-03-07T16:09:17;98552.52;;;3.27;80.92
34073;BME280;20346;52.702;16.886;2023-03-07T16:12:07;98565.00;;;3.24;80.88
34073;BME280;20346;52.702;16.886;2023-03-07T16:14:54;98568.30;;;3.12;80.69
34073;BME280;20346;52.702;16.886;2023-03-07T16:17:41;98571.31;;;2.98;80.63
34073;BME280;20346;52.702;16.886;2023-03-07T16:20:28;98573.03;;;2.87;80.67
34073;BME280;20346;52.702;16.886;2023-03-07T16:23:14;98570.66;;;2.77;80.55
34073;BME280;20346;52.702;16.886;2023-03-07T16:26:01;98569.14;;;2.67;80.50
34073;BME280;20346;52.702;16.886;2023-03-07T16:28:48;98569.13;;;2.59;80.59
34073;BME280;20346;52.702;16.886;2023-03-07T16:31:35;98576.05;;;2.51;80.60
34073;BME280;20346;52.702;16.886;2023-03-07T16:34:21;98578.53;;;2.46;80.65
34073;BME280;20346;52.702;16.886;2023-03-07T16:37:07;98584.42;;;2.39;80.59
34073;BME280;20346;52.702;16.886;2023-03-07T16:39:53;98591.51;;;2.31;80.55
34073;BME280;20346;52.702;16.886;2023-03-07T16:42:43;98605.56;;;2.24;80.52
34073;BME280;20346;52.702;16.886;2023-03-07T16:45:29;98610.59;;;2.17;80.56
34073;BME280;20346;52.702;16.886;2023-03-07T16:48:16;98614.77;;;2.11;80.55
34073;BME280;20346;52.702;16.886;2023-03-07T16:51:02;98624.08;;;2.02;80.51
34073;BME280;20346;52.702;16.886;2023-03-07T16:53:48;98625.52;;;1.96;80.49
34073;BME280;20346;52.702;16.886;2023-03-07T16:56:41;98629.69;;;1.89;80.53
34073;BME280;20346;52.702;16.886;2023-03-07T16:59:33;98635.36;;;1.84;80.51
34073;BME280;20346;52.702;16.886;2023-03-07T17:02:20;98635.11;;;1.78;80.47